Time;durP1;ratioP1;P1;durP2;ratioP2;P2;SDS_P1;SDS_P2;PMS_P1;PMS_P2;Temp;Humidity;BMP_temperature;BMP_pressure;BME280_temperature;BME280_humidity;BME280_pressure;Samples;Min_cycle;Max_cycle;Signal;HPM_P1;HPM_P2
2023/03/28 00:00:32;;;;;;;7.63;2.57;;;;;;;2.85;64.41;101224.91;5074038;28;20103;-60
2023/03/28 00:02:59;;;;;;;6.97;2.60;;;;;;;2.85;63.44;101230.41;5073414;28;20131;-60
2023/03/28 00:05:26;;;;;;;6.97;2.35;;;;;;;2.82;63.38;101230.09;5071446;28;20052;-60
2023/03/28 00:07:55;;;;;;;8.55;3.10;;;;;;;2.78;63.95;101226.16;5073710;28;20052;-60
2023/03/28 00:10:23;;;;;;;5.68;3.00;;;;;;;2.77;64.12;101233.59;5073810;28;20052;-60
2023/03/28 00:12:50;;;;;;;9.48;3.65;;;;;;;2.79;64.05;101234.19;5072826;28;20048;-60
2023/03/28 00:15:19;;;;;;;7.18;2.70;;;;;;;2.80;64.40;101235.84;5070840;28;20052;-61
2023/03/28 00:17:46;;;;;;;6.80;2.65;;;;;;;2.80;64.90;101238.59;5073721;28;20048;-61
2023/03/28 00:20:14;;;;;;;9.32;3.00;;;;;;;2.79;64.56;101236.06;5070842;28;20049;-60
2023/03/28 00:22:41;;;;;;;9.00;3.13;;;;;;;2.84;65.20;101231.53;5073041;28;20055;-61
2023/03/28 00:25:09;;;;;;;8.27;2.60;;;;;;;2.88;64.74;101236.53;5072086;28;20053;-61
2023/03/28 00:27:36;;;;;;;5.53;3.15;;;;;;;2.87;64.83;101241.19;5073098;28;20052;-60
2023/03/28 00:30:06;;;;;;;9.48;2.63;;;;;;;2.88;65.78;101234.63;5073393;28;20417;-61
2023/03/28 00:32:36;;;;;;;9.57;2.75;;;;;;;2.85;64.80;101240.59;5073447;28;20064;-61
2023/03/28 00:35:03;;;;;;;6.07;2.57;;;;;;;2.87;65.16;101243.94;5070634;28;20060;-60
2023/03/28 00:37:40;;;;;;;10.52;3.20;;;;;;;2.89;66.15;101243.72;5073240;28;20473;-61
2023/03/28 00:40:09;;;;;;;8.68;3.03;;;;;;;2.81;65.32;101244.91;5072487;28;20055;-61
2023/03/28 00:42:41;;;;;;;7.65;3.08;;;;;;;2.87;66.18;101241.19;5073093;28;20052;-61
2023/03/28 00:45:10;;;;;;;6.10;2.30;;;;;;;2.84;65.36;101250.78;5069794;28;20052;-61
2023/03/28 00:47:43;;;;;;;9.80;2.80;;;;;;;2.83;65.14;101251.88;5072755;28;20059;-61
2023/03/28 00:50:18;;;;;;;8.30;2.85;;;;;;;2.81;65.63;101254.03;5070463;28;20059;-61
2023/03/28 00:52:51;;;;;;;12.07;3.17;;;;;;;2.83;66.27;101248.25;5072758;28;20063;-61
2023/03/28 00:55:23;;;;;;;10.63;3.00;;;;;;;2.76;65.85;101245.66;5072162;28;20477;-61
2023/03/28 00:57:51;;;;;;;6.97;2.42;;;;;;;2.75;65.50;101241.25;5072967;28;20052;-61
2023/03/28 01:00:19;;;;;;;8.65;2.58;;;;;;;2.75;66.18;101244.00;5072909;28;20052;-61
2023/03/28 01:02:52;;;;;;;6.82;2.92;;;;;;;2.74;65.25;101245.06;5072804;28;20067;-60
2023/03/28 01:05:24;;;;;;;9.48;2.80;;;;;;;2.73;66.40;101250.78;5070961;28;20051;-61
2023/03/28 01:07:57;;;;;;;7.38;3.10;;;;;;;2.69;66.44;101247.72;5072830;28;20059;-61
2023/03/28 01:10:25;;;;;;;8.02;2.70;;;;;;;2.60;66.79;101247.25;5072944;28;20394;-61
2023/03/28 01:12:55;;;;;;;8.73;2.75;;;;;;;2.63;66.01;101243.19;5071196;28;20502;-61
2023/03/28 01:15:23;;;;;;;9.05;3.08;;;;;;;2.58;65.82;101245.81;5072905;28;20462;-61
2023/03/28 01:17:53;;;;;;;5.97;2.67;;;;;;;2.58;66.53;101248.56;5069855;28;20077;-61
2023/03/28 01:20:55;;;;;;;8.00;3.13;;;;;;;2.63;67.10;101256.94;5072623;28;20055;-61
2023/03/28 01:23:55;;;;;;;8.18;2.95;;;;;;;2.59;66.97;101251.06;5037032;28;20409;-60
2023/03/28 01:26:51;;;;;;;9.35;2.72;;;;;;;2.58;67.02;101249.41;5068670;28;20079;-61
2023/03/28 01:29:59;;;;;;;8.23;2.92;;;;;;;2.56;67.16;101243.31;5071561;28;20052;-61
2023/03/28 01:32:56;;;;;;;9.27;4.07;;;;;;;2.54;66.21;101242.72;5071595;28;20057;-62
2023/03/28 01:35:57;;;;;;;11.80;3.53;;;;;;;2.54;67.16;101247.38;5052401;28;20057;-61
2023/03/28 01:38:31;;;;;;;7.85;3.10;;;;;;;2.46;67.21;101242.25;5060189;28;20052;-61
2023/03/28 01:41:04;;;;;;;6.03;3.22;;;;;;;2.53;67.26;101245.72;5072026;28;20045;-61
2023/03/28 01:43:40;;;;;;;10.15;2.63;;;;;;;2.55;67.44;101252.63;5072060;28;20052;-60
2023/03/28 01:46:15;;;;;;;11.27;3.72;;;;;;;2.58;68.07;101257.66;5072205;28;20056;-61
2023/03/28 01:48:54;;;;;;;8.55;3.63;;;;;;;2.61;67.01;101259.09;5069506;28;20373;-60
2023/03/28 01:51:32;;;;;;;9.07;3.60;;;;;;;2.63;66.92;101251.44;5072136;28;20049;-60
2023/03/28 01:54:11;;;;;;;14.32;3.10;;;;;;;2.63;67.68;101262.44;5072077;28;20405;-61
2023/03/28 01:56:42;;;;;;;10.30;3.60;;;;;;;2.63;67.74;101256.94;5075657;28;20518;-60
2023/03/28 01:59:17;;;;;;;7.97;2.97;;;;;;;2.64;67.65;101255.84;5061214;28;20056;-60
2023/03/28 02:01:51;;;;;;;8.05;2.97;;;;;;;2.66;68.00;101250.94;5055814;28;20505;-61
2023/03/28 02:04:22;;;;;;;8.95;3.05;;;;;;;2.68;67.15;101245.19;5066027;28;20469;-60
2023/03/28 02:06:56;;;;;;;10.90;3.83;;;;;;;2.70;67.77;101243.88;5075903;28;20052;-60
2023/03/28 02:09:26;;;;;;;11.20;4.45;;;;;;;2.69;67.14;101257.88;5075015;28;20060;-60
2023/03/28 02:11:56;;;;;;;;;;;;;;;2.63;67.44;101248.69;5076069;28;20065;-61
2023/03/28 02:14:36;;;;;;;9.65;3.15;;;;;;;2.55;66.94;101236.13;5075565;28;19920;-61
2023/03/28 02:17:14;;;;;;;9.40;3.92;;;;;;;2.55;67.57;101243.56;5075855;28;20049;-60
2023/03/28 02:19:47;;;;;;;9.77;3.65;;;;;;;2.57;67.67;101238.66;5073527;28;20060;-60
2023/03/28 02:22:22;;;;;;;10.13;3.60;;;;;;;2.54;66.95;101236.38;5075503;28;20049;-60
2023/03/28 02:24:51;;;;;;;10.88;3.95;;;;;;;2.50;68.00;101240.69;5075692;28;20395;-60
2023/03/28 02:27:21;;;;;;;10.10;3.67;;;;;;;2.50;68.20;101232.44;5075481;28;20052;-60
2023/03/28 02:29:53;;;;;;;10.27;3.42;;;;;;;2.50;67.96;101230.53;5074304;28;20409;-60
2023/03/28 02:32:22;;;;;;;9.48;3.80;;;;;;;2.45;67.54;101224.91;5075510;28;20135;-59
2023/03/28 02:34:53;;;;;;;8.68;3.80;;;;;;;2.40;66.99;101228.41;5072767;28;20052;-60
2023/03/28 02:37:32;;;;;;;7.82;3.78;;;;;;;2.34;67.43;101226.59;5075107;28;20048;-61
2023/03/28 02:40:16;;;;;;;11.25;3.85;;;;;;;2.24;67.90;101229.13;5055309;28;20076;-61
2023/03/28 02:43:08;;;;;;;6.95;3.42;;;;;;;2.22;68.09;101231.28;5054896;28;20413;-61
2023/03/28 02:45:56;;;;;;;11.82;3.42;;;;;;;2.17;67.15;101228.44;5046515;28;20052;-61
2023/03/28 02:48:36;;;;;;;9.00;3.50;;;;;;;2.13;67.08;101229.97;5059447;28;20049;-60
2023/03/28 02:51:15;;;;;;;11.05;4.10;;;;;;;2.09;67.94;101232.34;5074941;28;20172;-60
2023/03/28 02:53:54;;;;;;;9.90;3.67;;;;;;;2.08;67.66;101224.34;5074911;28;20053;-60
2023/03/28 02:56:30;;;;;;;11.23;3.10;;;;;;;2.03;68.04;101223.16;5075325;28;20386;-61
2023/03/28 02:59:03;;;;;;;10.18;3.70;;;;;;;2.02;67.80;101231.66;5073733;28;20404;-60
2023/03/28 03:01:32;;;;;;;8.10;3.10;;;;;;;2.03;67.36;101225.91;5074661;28;20053;-60
2023/03/28 03:04:00;;;;;;;10.00;4.57;;;;;;;2.00;68.15;101231.88;5071946;28;20408;-60
2023/03/28 03:06:28;;;;;;;10.73;3.70;;;;;;;1.96;67.02;101227.94;5072704;28;20060;-60
2023/03/28 03:08:57;;;;;;;10.70;3.88;;;;;;;1.94;67.33;101230.09;5074737;28;20056;-60
2023/03/28 03:11:27;;;;;;;12.03;4.27;;;;;;;1.91;67.61;101225.09;5074759;28;20048;-60
2023/03/28 03:13:56;;;;;;;10.57;4.15;;;;;;;1.88;67.43;101224.72;5074436;28;20053;-60
2023/03/28 03:16:23;;;;;;;9.27;3.63;;;;;;;1.84;67.90;101218.84;5073203;28;20059;-61
2023/03/28 03:18:50;;;;;;;9.90;3.90;;;;;;;1.86;67.29;101213.13;5073165;28;20394;-60
2023/03/28 03:21:22;;;;;;;12.15;3.75;;;;;;;1.83;67.43;101211.72;5074370;28;20055;-61
2023/03/28 03:23:50;;;;;;;9.45;3.78;;;;;;;1.81;67.79;101214.69;5074080;28;20056;-60
2023/03/28 03:26:17;;;;;;;12.75;4.53;;;;;;;1.78;67.82;101214.31;5073148;28;20469;-60
2023/03/28 03:28:46;;;;;;;9.30;4.30;;;;;;;1.77;67.74;101224.47;5074315;28;20513;-61
2023/03/28 03:31:13;;;;;;;9.00;4.22;;;;;;;1.75;67.91;101231.28;5074265;28;20409;-60
2023/03/28 03:33:41;;;;;;;10.30;4.05;;;;;;;1.71;67.64;101224.59;5072855;28;20193;-61
2023/03/28 03:36:11;;;;;;;12.68;4.25;;;;;;;1.72;68.43;101229.84;5073917;28;20063;-60
2023/03/28 03:38:38;;;;;;;;;;;;;;;1.68;68.40;101225.91;5074772;28;20405;-60
2023/03/28 03:41:06;;;;;;;9.70;4.07;;;;;;;1.68;67.64;101225.03;5073527;28;19927;-60
2023/03/28 03:43:34;;;;;;;9.68;4.50;;;;;;;1.65;68.52;101223.59;5072675;28;20052;-59
2023/03/28 03:46:02;;;;;;;8.88;3.88;;;;;;;1.63;68.62;101223.84;5073600;28;20099;-60
2023/03/28 03:48:29;;;;;;;12.75;4.90;;;;;;;1.62;68.04;101227.69;5073460;28;20052;-60
2023/03/28 03:50:57;;;;;;;12.52;4.32;;;;;;;1.57;68.16;101230.28;5072302;28;20060;-61
2023/03/28 03:53:24;;;;;;;12.93;4.80;;;;;;;1.57;68.24;101230.28;5073894;28;20063;-60
2023/03/28 03:55:51;;;;;;;9.73;4.70;;;;;;;1.53;69.22;101226.31;5073399;28;20516;-59
2023/03/28 03:58:19;;;;;;;9.82;5.30;;;;;;;1.55;68.82;101232.41;5073845;28;20057;-60
2023/03/28 04:00:47;;;;;;;11.93;4.45;;;;;;;1.50;69.24;101234.22;5072883;28;20048;-60
2023/03/28 04:03:16;;;;;;;10.43;5.47;;;;;;;1.37;70.02;101230.59;5073655;28;20056;-60
2023/03/28 04:05:43;;;;;;;12.18;5.63;;;;;;;1.40;70.06;101232.03;5069917;28;20060;-60
2023/03/28 04:08:11;;;;;;;15.02;5.45;;;;;;;1.45;70.09;101237.66;5069704;28;20052;-60
2023/03/28 04:10:38;;;;;;;13.43;5.50;;;;;;;1.48;70.02;101241.84;5073744;28;20048;-60
2023/03/28 04:13:05;;;;;;;14.57;5.38;;;;;;;1.46;69.50;101244.00;5073135;28;20477;-59
2023/03/28 04:15:32;;;;;;;12.70;5.75;;;;;;;1.49;69.97;101244.38;5073700;28;20059;-60
2023/03/28 04:18:00;;;;;;;12.10;5.45;;;;;;;1.52;70.17;101249.38;5071455;28;20071;-59
2023/03/28 04:20:28;;;;;;;11.88;5.53;;;;;;;1.54;70.74;101254.63;5070101;28;20083;-60
2023/03/28 04:22:57;;;;;;;13.85;5.63;;;;;;;1.52;70.64;101259.53;5073169;28;20048;-60
2023/03/28 04:25:24;;;;;;;10.75;4.55;;;;;;;1.50;70.21;101267.16;5073305;28;20048;-60
2023/03/28 04:27:53;;;;;;;12.13;5.78;;;;;;;1.53;70.42;101267.50;5072236;28;20052;-61
2023/03/28 04:30:21;;;;;;;11.93;5.55;;;;;;;1.53;69.97;101264.75;5073308;28;20083;-60
2023/03/28 04:32:49;;;;;;;16.58;5.60;;;;;;;1.55;69.79;101265.38;5072976;28;20048;-60
2023/03/28 04:35:16;;;;;;;13.88;5.88;;;;;;;1.48;69.81;101270.13;5069513;28;20409;-60
2023/03/28 04:37:46;;;;;;;12.60;5.80;;;;;;;1.50;68.86;101278.97;5070615;28;20051;-60
2023/03/28 04:40:15;;;;;;;9.35;5.15;;;;;;;1.48;69.63;101275.63;5071530;28;20489;-60
2023/03/28 04:42:42;;;;;;;11.32;5.00;;;;;;;1.46;69.09;101277.75;5072693;28;20450;-60
2023/03/28 04:45:10;;;;;;;16.95;6.47;;;;;;;1.41;69.30;101285.88;5072559;28;20062;-60
2023/03/28 04:47:38;;;;;;;11.13;5.43;;;;;;;1.41;68.94;101285.88;5072847;28;20067;-60
2023/03/28 04:50:07;;;;;;;13.40;5.47;;;;;;;1.41;68.96;101291.38;5069811;28;20048;-60
2023/03/28 04:52:35;;;;;;;14.05;5.28;;;;;;;1.36;68.91;101288.47;5072753;28;20059;-60
2023/03/28 04:55:06;;;;;;;13.15;5.97;;;;;;;1.31;69.42;101288.34;5072803;28;20048;-60
2023/03/28 04:57:35;;;;;;;15.02;5.35;;;;;;;1.33;69.07;101289.78;5072711;28;20457;-60
2023/03/28 05:00:08;;;;;;;13.15;4.97;;;;;;;1.26;69.20;101290.94;5071335;28;20053;-60
2023/03/28 05:02:35;;;;;;;12.00;6.38;;;;;;;1.24;68.97;101299.41;5070330;28;20056;-60
2023/03/28 05:05:03;;;;;;;11.80;5.60;;;;;;;1.23;68.91;101294.97;5070325;28;20053;-59
2023/03/28 05:07:30;;;;;;;12.40;6.55;;;;;;;1.23;69.41;101294.97;5071408;28;20265;-59
2023/03/28 05:09:58;;;;;;;19.92;7.85;;;;;;;1.21;69.49;101295.22;5072255;28;20052;-61
2023/03/28 05:12:26;;;;;;;15.85;6.47;;;;;;;1.24;69.53;101296.66;5070747;28;20512;-61
2023/03/28 05:14:54;;;;;;;14.20;6.50;;;;;;;1.27;69.55;101298.09;5072460;28;20056;-60
2023/03/28 05:17:21;;;;;;;13.60;6.45;;;;;;;1.24;69.91;101291.19;5072080;28;20056;-61
2023/03/28 05:19:49;;;;;;;13.18;5.00;;;;;;;1.27;69.61;101289.88;5070417;28;20055;-61
2023/03/28 05:22:16;;;;;;;16.25;5.90;;;;;;;1.30;69.58;101300.38;5071525;28;20071;-59
2023/03/28 05:24:43;;;;;;;12.23;5.22;;;;;;;1.30;69.77;101306.72;5072447;28;20052;-61
2023/03/28 05:27:11;;;;;;;10.65;5.50;;;;;;;1.33;69.09;101309.00;5071972;28;20075;-60
2023/03/28 05:29:40;;;;;;;13.13;5.53;;;;;;;1.34;69.35;101310.66;5070925;28;20056;-60
2023/03/28 05:32:07;;;;;;;16.10;6.17;;;;;;;1.36;68.88;101310.44;5072473;28;20059;-60
2023/03/28 05:34:35;;;;;;;16.23;6.50;;;;;;;1.42;69.29;101313.06;5070748;28;20052;-60
2023/03/28 05:37:03;;;;;;;14.43;6.03;;;;;;;1.48;69.21;101315.97;5052174;28;20048;-60
2023/03/28 05:39:30;;;;;;;12.93;5.93;;;;;;;1.51;69.42;101324.59;5055418;28;20387;-60
2023/03/28 05:41:57;;;;;;;13.32;6.03;;;;;;;1.56;69.46;101330.19;5071789;28;20053;-60
2023/03/28 05:44:25;;;;;;;17.80;6.68;;;;;;;1.60;68.95;101325.91;5072112;28;20513;-61
2023/03/28 05:46:54;;;;;;;12.52;6.00;;;;;;;1.69;69.89;101326.41;5072189;28;20067;-61
2023/03/28 05:49:21;;;;;;;15.10;6.10;;;;;;;1.76;69.12;101326.31;5070239;28;20056;-60
2023/03/28 05:51:49;;;;;;;11.25;6.28;;;;;;;1.80;69.16;101325.59;5051777;28;20045;-60
2023/03/28 05:54:16;;;;;;;11.23;6.20;;;;;;;1.88;68.93;101318.94;5051600;28;20052;-60
2023/03/28 05:56:43;;;;;;;13.85;5.93;;;;;;;1.94;69.72;101326.25;5051586;28;20053;-60
2023/03/28 05:59:11;;;;;;;12.05;6.03;;;;;;;2.00;69.57;101317.06;5052072;28;20478;-60
2023/03/28 06:01:39;;;;;;;12.35;6.22;;;;;;;2.10;69.83;101315.63;5071900;28;20049;-60
2023/03/28 06:04:08;;;;;;;11.98;7.40;;;;;;;2.21;69.21;101320.31;5071515;28;20055;-61
2023/03/28 06:06:35;;;;;;;13.63;6.38;;;;;;;2.33;69.17;101328.56;5068908;28;20056;-60
2023/03/28 06:09:03;;;;;;;16.70;7.30;;;;;;;2.38;69.59;101326.78;5071584;28;20052;-60
2023/03/28 06:11:33;;;;;;;14.73;6.97;;;;;;;2.47;69.23;101326.41;5061862;28;20048;-60
2023/03/28 06:14:00;;;;;;;12.00;6.72;;;;;;;2.50;68.64;101324.03;5071927;28;20058;-60
2023/03/28 06:16:27;;;;;;;13.68;6.53;;;;;;;2.63;67.94;101325.69;5071693;28;20052;-60
2023/03/28 06:18:55;;;;;;;12.57;6.10;;;;;;;2.73;67.95;101331.44;5071878;28;20049;-60
2023/03/28 06:21:23;;;;;;;16.38;7.45;;;;;;;2.73;67.55;101336.06;5068953;28;20079;-60
2023/03/28 06:23:51;;;;;;;9.98;6.10;;;;;;;2.89;68.63;101334.50;5071555;28;20052;-61
2023/03/28 06:26:18;;;;;;;13.60;6.20;;;;;;;3.03;67.87;101331.25;5071551;28;20512;-60
2023/03/28 06:28:48;;;;;;;13.10;6.15;;;;;;;3.07;67.90;101339.88;5071746;28;20450;-60
2023/03/28 06:31:15;;;;;;;;;;;;;;;3.18;67.28;101338.97;5071074;28;20056;-60
2023/03/28 06:33:43;;;;;;;15.23;6.70;;;;;;;3.31;67.08;101334.28;5071341;28;20373;-60
2023/03/28 06:36:14;;;;;;;15.07;6.07;;;;;;;3.39;67.44;101334.72;5070041;28;20053;-60
2023/03/28 06:38:42;;;;;;;11.30;5.32;;;;;;;3.47;65.73;101338.19;5071686;28;20374;-61
2023/03/28 06:41:10;;;;;;;12.05;6.25;;;;;;;3.59;66.60;101341.69;5070748;28;20528;-61
2023/03/28 06:43:37;;;;;;;10.50;5.82;;;;;;;3.70;65.83;101348.28;5074728;28;20048;-61
2023/03/28 06:46:05;;;;;;;13.32;5.72;;;;;;;3.82;65.97;101338.84;5075248;28;20059;-61
2023/03/28 06:48:32;;;;;;;9.48;5.60;;;;;;;3.94;65.20;101340.69;5072025;28;20057;-58
2023/03/28 06:50:59;;;;;;;12.45;7.03;;;;;;;3.98;65.33;101336.34;5071859;28;20052;-58
2023/03/28 06:53:27;;;;;;;12.77;5.57;;;;;;;4.13;65.43;101341.28;5067846;28;20049;-57
2023/03/28 06:55:56;;;;;;;22.80;6.25;;;;;;;4.26;63.85;101338.19;5069485;28;20056;-57
2023/03/28 06:58:24;;;;;;;11.23;5.65;;;;;;;4.46;64.41;101335.75;5073520;28;20466;-57
2023/03/28 07:00:52;;;;;;;10.88;5.20;;;;;;;4.61;63.54;101342.63;5073225;28;20413;-58
2023/03/28 07:03:19;;;;;;;11.82;6.03;;;;;;;4.72;63.22;101344.41;5069254;28;20053;-58
2023/03/28 07:05:46;;;;;;;15.80;5.90;;;;;;;4.92;62.92;101346.66;5071585;28;20101;-58
2023/03/28 07:08:14;;;;;;;11.00;5.30;;;;;;;5.24;62.39;101349.53;5071957;28;20049;-58
2023/03/28 07:10:41;;;;;;;12.23;5.22;;;;;;;5.48;61.32;101347.34;5062191;28;20045;-58
2023/03/28 07:13:11;;;;;;;10.07;5.57;;;;;;;6.13;59.94;101353.00;5070651;28;20044;-57
2023/03/28 07:15:39;;;;;;;11.73;5.47;;;;;;;7.06;57.65;101358.09;5068189;28;20413;-57
2023/03/28 07:18:09;;;;;;;12.30;4.80;;;;;;;8.22;54.44;101348.72;5059028;28;20512;-57
2023/03/28 07:20:38;;;;;;;13.27;4.78;;;;;;;9.36;51.37;101339.88;5070159;28;20049;-57
2023/03/28 07:23:06;;;;;;;9.88;4.05;;;;;;;10.32;49.06;101343.19;5074088;28;20048;-57
2023/03/28 07:25:33;;;;;;;10.93;3.83;;;;;;;11.47;47.20;101347.28;5073886;28;20411;-57
2023/03/28 07:28:00;;;;;;;8.95;4.03;;;;;;;12.67;43.92;101344.03;5074187;28;20075;-58
2023/03/28 07:30:30;;;;;;;8.57;4.22;;;;;;;13.40;41.57;101347.97;5071855;28;20501;-57
2023/03/28 07:32:57;;;;;;;12.73;4.53;;;;;;;14.38;40.97;101332.53;5062822;28;20385;-58
2023/03/28 07:35:24;;;;;;;11.18;4.50;;;;;;;15.56;38.35;101342.47;5064674;28;20060;-58
2023/03/28 07:37:51;;;;;;;7.72;3.88;;;;;;;16.17;36.89;101337.81;5069238;28;20052;-57
2023/03/28 07:40:19;;;;;;;10.70;4.43;;;;;;;17.25;35.29;101339.69;5071252;28;20061;-58
2023/03/28 07:42:48;;;;;;;6.22;4.05;;;;;;;18.32;32.89;101333.84;5074047;28;20049;-58
2023/03/28 07:45:16;;;;;;;6.53;3.65;;;;;;;18.24;32.30;101339.19;5070423;28;20048;-58
2023/03/28 07:47:44;;;;;;;8.00;3.67;;;;;;;18.37;31.50;101342.06;5066003;28;20053;-58
2023/03/28 07:50:12;;;;;;;6.43;3.47;;;;;;;18.88;30.80;101328.63;5067714;28;20083;-58
2023/03/28 07:52:44;;;;;;;12.60;4.00;;;;;;;19.58;30.23;101339.00;5061867;28;20847;-58
2023/03/28 07:55:12;;;;;;;6.95;3.78;;;;;;;19.91;30.02;101338.88;5069216;28;20060;-58
2023/03/28 07:57:39;;;;;;;10.23;4.05;;;;;;;20.41;29.02;101337.50;5072595;28;20053;-58
2023/03/28 08:00:11;;;;;;;11.90;4.40;;;;;;;20.07;28.63;101339.78;5070097;28;20063;-58
2023/03/28 08:02:39;;;;;;;9.25;4.05;;;;;;;21.17;26.45;101331.88;5065109;28;20056;-58
2023/03/28 08:05:08;;;;;;;10.35;4.15;;;;;;;21.65;26.08;101335.50;5062724;28;20052;-59
2023/03/28 08:07:36;;;;;;;8.07;4.25;;;;;;;22.65;25.50;101327.50;5066710;28;20052;-58
2023/03/28 08:10:04;;;;;;;9.75;4.18;;;;;;;22.51;25.26;101333.75;5065646;28;20055;-58
2023/03/28 08:12:31;;;;;;;6.80;3.33;;;;;;;23.41;23.77;101324.78;5070485;28;20056;-58
2023/03/28 08:14:59;;;;;;;7.20;3.63;;;;;;;23.20;23.86;101330.94;5068665;28;20385;-58
2023/03/28 08:17:26;;;;;;;7.45;3.20;;;;;;;23.29;23.81;101325.03;5070484;28;20059;-58
2023/03/28 08:19:53;;;;;;;9.02;3.60;;;;;;;24.39;22.82;101329.84;5070082;28;20052;-58
2023/03/28 08:22:24;;;;;;;6.32;3.40;;;;;;;24.88;22.02;101325.91;5060069;28;20048;-58
2023/03/28 08:24:52;;;;;;;8.02;3.45;;;;;;;25.01;22.07;101317.88;5066939;28;20048;-58
2023/03/28 08:27:19;;;;;;;8.52;3.15;;;;;;;25.77;20.67;101320.13;5068747;28;20486;-58
2023/03/28 08:29:47;;;;;;;6.10;2.88;;;;;;;25.36;20.91;101330.84;5059461;28;20060;-57
2023/03/28 08:32:14;;;;;;;9.70;5.70;;;;;;;25.50;20.88;101314.66;5070403;28;20535;-57
2023/03/28 08:34:42;;;;;;;9.73;5.25;;;;;;;25.75;21.48;101313.19;5060794;28;20052;-57
2023/03/28 08:37:09;;;;;;;8.43;3.10;;;;;;;26.88;20.03;101309.16;5059774;28;20378;-57
2023/03/28 08:39:40;;;;;;;9.23;3.65;;;;;;;27.04;19.96;101305.06;5062506;28;20053;-59
2023/03/28 08:42:35;;;;;;;9.82;3.42;;;;;;;28.40;19.06;101315.44;5057701;28;20417;-59
2023/03/28 08:45:26;;;;;;;11.10;5.60;;;;;;;29.40;17.80;101309.03;5046115;28;20044;-59
2023/03/28 08:48:02;;;;;;;9.40;4.75;;;;;;;30.11;16.76;101307.47;5063148;28;20053;-59
2023/03/28 08:50:32;;;;;;;8.85;4.68;;;;;;;30.95;16.78;101319.44;5064229;28;20052;-57
2023/03/28 08:53:01;;;;;;;8.90;3.90;;;;;;;31.30;15.44;101312.28;5064114;28;20055;-57
2023/03/28 08:55:33;;;;;;;10.10;3.40;;;;;;;31.49;15.72;101307.06;5072829;28;20063;-57
2023/03/28 08:58:01;;;;;;;7.57;2.65;;;;;;;29.24;17.37;101317.38;5061593;28;20056;-57
2023/03/28 09:00:30;;;;;;;5.43;1.98;;;;;;;27.16;18.12;101315.31;5068305;28;20049;-57
2023/03/28 09:02:58;;;;;;;6.63;2.22;;;;;;;25.69;18.80;101318.44;5058259;28;20064;-58
2023/03/28 09:05:38;;;;;;;7.10;2.47;;;;;;;24.76;20.01;101318.47;5064100;28;20053;-57
2023/03/28 09:08:24;;;;;;;4.10;1.98;;;;;;;22.89;20.67;101326.34;5058501;28;20494;-57
2023/03/28 09:11:02;;;;;;;5.55;1.60;;;;;;;21.55;21.09;101332.44;5066264;28;20044;-58
2023/03/28 09:13:39;;;;;;;5.30;1.90;;;;;;;20.09;23.63;101333.72;5064948;28;20041;-58
2023/03/28 09:16:27;;;;;;;7.30;2.33;;;;;;;18.70;25.06;101332.78;5061423;28;20052;-57
2023/03/28 09:19:14;;;;;;;5.75;2.35;;;;;;;17.80;26.24;101344.31;5062822;28;20500;-58
2023/03/28 09:21:55;;;;;;;6.95;2.30;;;;;;;17.10;27.42;101334.63;5059358;28;20045;-58
2023/03/28 09:24:42;;;;;;;5.32;2.28;;;;;;;16.91;28.01;101333.06;5069433;28;20053;-58
2023/03/28 09:27:19;;;;;;;5.40;1.75;;;;;;;18.24;26.77;101327.09;5062862;28;20068;-58
2023/03/28 09:29:52;;;;;;;5.88;2.17;;;;;;;18.09;27.05;101317.28;5059743;28;20049;-58
2023/03/28 09:32:22;;;;;;;6.72;2.38;;;;;;;20.15;25.44;101320.16;5070063;28;20052;-58
2023/03/28 09:34:51;;;;;;;4.90;2.20;;;;;;;19.64;25.21;101321.44;5054193;28;20056;-58
2023/03/28 09:37:28;;;;;;;8.10;1.90;;;;;;;18.82;26.28;101313.09;5069719;28;20067;-57
2023/03/28 09:40:00;;;;;;;6.70;1.73;;;;;;;18.23;26.66;101319.81;5065995;28;20057;-57
2023/03/28 09:42:38;;;;;;;5.43;2.10;;;;;;;17.81;27.21;101319.81;5067644;28;20049;-57
2023/03/28 09:45:15;;;;;;;4.82;1.52;;;;;;;19.43;25.75;101320.78;5069755;28;20060;-57
2023/03/28 09:47:46;;;;;;;8.82;2.20;;;;;;;19.18;26.29;101326.41;5066161;28;20076;-58
2023/03/28 09:50:16;;;;;;;4.60;1.77;;;;;;;19.17;26.31;101312.63;5062830;28;20056;-57
2023/03/28 09:52:45;;;;;;;6.03;1.80;;;;;;;18.96;26.08;101316.41;5066720;28;20048;-60
2023/03/28 09:55:17;;;;;;;5.80;2.15;;;;;;;19.03;26.35;101325.13;5065480;28;20072;-60
2023/03/28 09:58:07;;;;;;;6.75;2.13;;;;;;;19.50;25.40;101315.34;5064130;28;20489;-60
2023/03/28 10:00:37;;;;;;;4.65;1.85;;;;;;;20.15;24.37;101308.84;5068117;28;20049;-60
2023/03/28 10:03:04;;;;;;;;;;;;;;;20.18;24.37;101305.28;5069083;28;20044;-60
2023/03/28 10:05:38;;;;;;;6.40;1.58;;;;;;;20.16;23.86;101302.84;5064785;28;20326;-60
2023/03/28 10:08:19;;;;;;;4.50;1.60;;;;;;;19.70;24.25;101304.22;5062644;28;20049;-60
2023/03/28 10:10:55;;;;;;;3.03;1.40;;;;;;;18.70;26.03;101296.91;5068061;28;20060;-61
2023/03/28 10:13:23;;;;;;;4.50;1.50;;;;;;;17.82;24.83;101308.19;5065877;28;20075;-60
2023/03/28 10:15:52;;;;;;;3.37;1.63;;;;;;;17.23;25.98;101302.59;5060367;28;20049;-60
2023/03/28 10:18:21;;;;;;;3.40;1.70;;;;;;;16.64;27.06;101312.56;5064514;28;20405;-61
2023/03/28 10:20:50;;;;;;;6.20;1.98;;;;;;;16.22;27.02;101320.75;5071875;28;20400;-61
2023/03/28 10:23:17;;;;;;;6.30;1.85;;;;;;;16.06;27.85;101318.78;5070438;28;20057;-60
2023/03/28 10:25:50;;;;;;;4.65;1.70;;;;;;;15.92;28.14;101308.53;5068724;28;20044;-60
2023/03/28 10:28:23;;;;;;;5.15;1.90;;;;;;;16.08;27.88;101305.22;5063065;28;20487;-61
2023/03/28 10:30:56;;;;;;;5.50;1.92;;;;;;;16.19;27.84;101310.19;5068861;28;20131;-61
2023/03/28 10:33:26;;;;;;;4.68;1.70;;;;;;;16.64;27.11;101298.50;5071243;28;20374;-61
2023/03/28 10:35:59;;;;;;;4.13;1.80;;;;;;;17.00;26.42;101297.25;5065328;28;20052;-61
2023/03/28 10:38:32;;;;;;;4.85;1.42;;;;;;;16.64;26.92;101294.88;5070765;28;20064;-60
2023/03/28 10:41:02;;;;;;;4.18;1.90;;;;;;;16.24;27.16;101283.88;5065486;28;20049;-60
2023/03/28 10:43:33;;;;;;;5.30;1.45;;;;;;;16.38;26.47;101280.91;5074697;28;20063;-60
2023/03/28 10:46:07;;;;;;;5.75;1.83;;;;;;;18.26;24.93;101274.81;5073106;28;20067;-60
2023/03/28 10:48:36;;;;;;;6.53;1.67;;;;;;;17.99;24.57;101278.22;5074305;28;20056;-60
2023/03/28 10:51:09;;;;;;;3.63;1.53;;;;;;;17.44;25.29;101271.66;5074474;28;20057;-60
2023/03/28 10:53:50;;;;;;;6.30;1.85;;;;;;;17.60;25.28;101280.34;5073562;28;20049;-60
2023/03/28 10:56:26;;;;;;;4.55;1.63;;;;;;;18.49;24.29;101276.41;5074407;28;20489;-60
2023/03/28 10:59:10;;;;;;;4.93;1.42;;;;;;;17.75;25.29;101279.72;5073473;28;20060;-60
2023/03/28 11:01:49;;;;;;;5.40;1.65;;;;;;;18.06;24.64;101272.88;5070993;28;20048;-60
2023/03/28 11:04:27;;;;;;;5.18;1.63;;;;;;;18.36;24.18;101262.28;5074906;28;20409;-60
2023/03/28 11:07:02;;;;;;;4.20;2.00;;;;;;;17.94;23.78;101268.00;5075011;28;20052;-61
2023/03/28 11:09:39;;;;;;;5.82;1.85;;;;;;;18.28;23.62;101257.53;5074244;28;20386;-62
2023/03/28 11:12:18;;;;;;;3.65;1.73;;;;;;;18.19;23.29;101254.81;5054380;28;20066;-62
2023/03/28 11:14:56;;;;;;;4.93;1.60;;;;;;;19.81;22.27;101258.19;5068844;28;20107;-62
2023/03/28 11:17:35;;;;;;;3.80;1.55;;;;;;;23.47;20.03;101246.47;5074015;28;20048;-62
2023/03/28 11:20:19;;;;;;;5.43;1.45;;;;;;;25.96;17.15;101246.88;5075021;28;20048;-62
2023/03/28 11:22:58;;;;;;;4.13;1.40;;;;;;;26.03;16.34;101238.31;5074431;28;20444;-62
2023/03/28 11:25:32;;;;;;;;;;;;;;;28.11;15.42;101233.31;5074279;28;20051;-61
2023/03/28 11:28:08;;;;;;;4.63;1.50;;;;;;;29.25;14.21;101232.91;5073783;28;19927;-62
2023/03/28 11:30:36;;;;;;;3.00;1.63;;;;;;;29.68;13.74;101226.72;5072699;28;20056;-62
2023/03/28 11:33:11;;;;;;;3.72;1.63;;;;;;;30.54;13.77;101222.69;5072638;28;20048;-61
2023/03/28 11:35:43;;;;;;;3.50;1.50;;;;;;;30.20;12.84;101212.09;5066805;28;20056;-61
2023/03/28 11:38:21;;;;;;;3.10;1.50;;;;;;;29.72;14.13;101213.16;5054427;28;20391;-61
2023/03/28 11:40:52;;;;;;;4.38;1.60;;;;;;;28.09;14.67;101210.00;5059662;28;20048;-61
2023/03/28 11:43:28;;;;;;;4.28;1.60;;;;;;;27.80;14.91;101202.75;5074290;28;20056;-61
2023/03/28 11:46:03;;;;;;;4.53;1.60;;;;;;;26.99;15.58;101206.22;5071627;28;20044;-61
2023/03/28 11:48:40;;;;;;;3.92;1.45;;;;;;;25.01;16.54;101193.31;5055737;28;20041;-60